Time;durP1;ratioP1;P1;durP2;ratioP2;P2;SDS_P1;SDS_P2;PMS_P1;PMS_P2;Temp;Humidity;BMP_temperature;BMP_pressure;BME280_temperature;BME280_humidity;BME280_pressure;Samples;Min_cycle;Max_cycle;Signal;HPM_P1;HPM_P2
2022/05/23 00:00:08;;;;;;;1.50;1.40;;;22.00;54.30;;;-142.21;73.29;112049.66;5074639;28;20647;-72
2022/05/23 00:02:35;;;;;;;2.07;1.47;;;22.00;54.40;;;-142.21;73.41;112049.66;5070043;28;20846;-73
2022/05/23 00:05:03;;;;;;;1.97;1.23;;;22.00;54.40;;;-142.21;73.19;112049.66;5073140;28;20232;-73
2022/05/23 00:07:35;;;;;;;1.50;1.40;;;21.90;54.20;;;-142.21;72.80;112049.66;5070791;28;20208;-73
2022/05/23 00:10:04;;;;;;;2.67;1.50;;;21.90;54.20;;;-142.21;73.12;112049.66;5073532;28;20277;-73
2022/05/23 00:12:32;;;;;;;1.87;1.67;;;21.90;54.30;;;-142.21;72.73;112049.66;5072763;28;20672;-73
2022/05/23 00:15:00;;;;;;;2.57;1.20;;;21.80;54.20;;;-142.21;73.17;112049.66;5082703;28;20288;-73
2022/05/23 00:17:27;;;;;;;1.57;1.47;;;21.80;54.40;;;-142.21;72.71;112049.66;5071514;28;20204;-73
2022/05/23 00:19:55;;;;;;;1.87;1.30;;;21.70;54.20;;;-142.21;72.96;112049.66;5072093;28;20221;-73
2022/05/23 00:22:22;;;;;;;1.67;1.30;;;21.70;54.30;;;-142.21;72.28;112049.66;5069375;28;20641;-73
2022/05/23 00:24:49;;;;;;;1.47;1.37;;;21.70;54.00;;;-142.21;71.10;112049.66;5088172;28;20197;-72
2022/05/23 00:27:22;;;;;;;1.53;1.40;;;21.70;53.80;;;-142.21;72.40;112049.66;5079515;28;20197;-73
2022/05/23 00:29:53;;;;;;;1.90;1.53;;;21.70;54.20;;;-142.21;72.39;112049.66;5070468;28;20194;-73
2022/05/23 00:35:21;;;;;;;1.50;1.40;;;21.60;54.10;;;-142.21;71.83;112049.66;5087262;28;20578;-73
2022/05/23 00:37:50;;;;;;;1.73;1.60;;;21.60;54.10;;;-142.21;71.29;112049.66;5079737;28;20189;-73
2022/05/23 00:40:35;;;;;;;1.67;1.47;;;21.60;54.00;;;-142.21;71.39;112049.66;5088202;28;20221;-72
2022/05/23 00:43:20;;;;;;;1.67;1.50;;;21.60;54.00;;;-142.21;71.38;112049.66;5074407;28;20292;-72
2022/05/23 00:45:53;;;;;;;2.17;1.50;;;21.60;54.10;;;-142.21;71.11;112049.66;5074442;28;20189;-73
2022/05/23 00:48:26;;;;;;;1.87;1.27;;;21.60;53.90;;;-142.21;72.25;112049.66;5091540;28;20629;-73
2022/05/23 00:50:58;;;;;;;2.00;1.50;;;21.60;54.10;;;-142.21;73.44;112049.66;5077424;28;20194;-72
2022/05/23 00:53:31;;;;;;;2.13;1.90;;;21.60;54.60;;;-142.21;73.27;112049.66;5059164;28;20559;-72
2022/05/23 00:56:00;;;;;;;4.37;1.40;;;21.60;54.60;;;-142.21;73.82;112049.66;5093615;28;20283;-72
2022/05/23 00:58:33;;;;;;;2.50;1.80;;;21.60;54.60;;;-142.21;74.21;112049.66;5077175;28;20197;-73
2022/05/23 01:01:08;;;;;;;2.10;1.80;;;21.60;54.70;;;-142.21;74.41;112049.66;5074294;28;20212;-72
2022/05/23 01:03:37;;;;;;;1.43;1.33;;;21.60;54.70;;;-142.21;74.40;112049.66;5078698;28;20200;-72
2022/05/23 01:06:08;;;;;;;1.97;1.73;;;21.50;54.60;;;-142.21;73.90;112049.66;5076882;28;20237;-73
2022/05/23 01:08:37;;;;;;;1.60;1.50;;;21.50;54.60;;;-142.21;75.25;112049.66;5064875;28;20190;-73
2022/05/23 01:11:05;;;;;;;3.63;1.60;;;21.50;54.80;;;-142.21;75.81;112049.66;5068955;28;20269;-73
2022/05/23 01:13:32;;;;;;;1.63;1.53;;;21.50;55.10;;;-142.21;75.23;112049.66;5072655;28;20197;-72
2022/05/23 01:15:59;;;;;;;2.87;2.00;;;21.40;54.90;;;-142.21;75.27;112049.66;5088562;28;20653;-72
2022/05/23 01:18:27;;;;;;;2.07;1.53;;;21.40;54.90;;;-142.21;74.98;112049.66;5075395;28;20205;-72
2022/05/23 01:21:01;;;;;;;1.60;1.50;;;21.40;54.90;;;-142.21;73.61;112049.66;5063271;28;20573;-71
2022/05/23 01:23:43;;;;;;;2.10;1.53;;;21.50;54.60;;;-142.21;73.90;112049.66;5060110;28;20232;-72
2022/05/23 01:26:11;;;;;;;3.23;1.60;;;21.40;54.60;;;-142.21;73.63;112049.66;5073526;28;20193;-72
2022/05/23 01:28:42;;;;;;;1.93;1.70;;;21.50;54.80;;;-142.21;73.20;112049.66;5079099;28;20207;-72
2022/05/23 01:31:12;;;;;;;2.20;1.70;;;21.50;54.70;;;-142.21;73.45;112049.66;5074995;28;20225;-72
2022/05/23 01:33:40;;;;;;;1.93;1.73;;;21.50;54.70;;;-142.21;74.22;112049.66;5087824;28;20235;-73
2022/05/23 01:36:12;;;;;;;3.30;1.77;;;21.50;54.80;;;-142.21;74.44;112049.66;5076194;28;20665;-71
2022/05/23 01:38:39;;;;;;;2.33;1.60;;;21.50;55.00;;;-142.21;75.29;112049.66;5073336;28;20251;-72
2022/05/23 01:41:07;;;;;;;1.80;1.60;;;21.50;55.10;;;-142.21;75.26;112049.66;5077273;28;20207;-72
2022/05/23 01:43:36;;;;;;;2.00;1.80;;;21.50;55.00;;;-142.21;75.62;112049.66;5092728;28;20283;-72
2022/05/23 01:46:03;;;;;;;2.17;1.73;;;21.50;55.10;;;-142.21;75.41;112049.66;5078246;28;20201;-72
2022/05/23 01:48:30;;;;;;;1.90;1.70;;;21.50;55.10;;;-142.21;75.44;112049.66;5089319;28;20203;-72
2022/05/23 01:50:57;;;;;;;1.90;1.60;;;21.50;55.10;;;-142.21;75.07;112049.66;5081238;28;20208;-72
2022/05/23 01:53:26;;;;;;;1.83;1.70;;;21.50;55.00;;;-142.21;74.62;112049.66;5075250;28;20292;-72
2022/05/23 01:55:54;;;;;;;1.80;1.50;;;21.50;54.90;;;-142.21;74.82;112049.66;5085985;28;20200;-72
2022/05/23 02:01:16;;;;;;;2.20;1.60;;;21.50;54.80;;;-142.21;75.02;112049.66;5076541;28;20193;-72
2022/05/23 02:03:45;;;;;;;1.50;1.40;;;21.50;55.10;;;-142.21;75.41;112049.66;5090994;28;20295;-72
2022/05/23 02:06:13;;;;;;;1.80;1.70;;;21.50;55.20;;;-142.21;75.08;112049.66;5082072;28;20188;-73
2022/05/23 02:08:40;;;;;;;2.27;1.70;;;21.50;55.10;;;-142.21;75.01;112049.66;5084776;28;20197;-72
2022/05/23 02:11:09;;;;;;;1.77;1.60;;;21.40;55.10;;;-142.21;76.09;112049.66;5064637;28;20201;-72
2022/05/23 02:13:41;;;;;;;1.93;1.40;;;21.50;55.40;;;-142.21;75.82;112049.66;5091274;28;20202;-72
2022/05/23 02:16:10;;;;;;;1.87;1.70;;;21.50;55.40;;;-142.21;75.52;112049.66;5082018;28;20280;-73
2022/05/23 02:18:37;;;;;;;2.07;1.53;;;21.40;55.30;;;-142.21;75.04;112049.66;5084181;28;20552;-72
2022/05/23 02:21:05;;;;;;;1.63;1.53;;;21.50;55.30;;;-142.21;75.86;112049.66;5070608;28;20229;-71
2022/05/23 02:23:32;;;;;;;1.73;1.50;;;21.50;55.50;;;-142.21;75.62;112049.66;5088599;28;20200;-73
2022/05/23 02:25:59;;;;;;;1.87;1.73;;;21.50;55.40;;;-142.21;75.39;112049.66;5086980;28;20664;-73
2022/05/23 02:28:26;;;;;;;2.87;1.90;;;21.50;55.30;;;-142.21;75.74;112049.66;5088573;28;20194;-73
2022/05/23 02:30:53;;;;;;;2.27;1.87;;;21.50;55.40;;;-142.21;75.84;112049.66;5071619;28;20308;-73
2022/05/23 02:33:22;;;;;;;1.70;1.60;;;21.50;55.40;;;-142.21;75.98;112049.66;5073635;28;20201;-72
2022/05/23 02:35:49;;;;;;;1.57;1.47;;;21.60;55.50;;;-142.21;75.48;112049.66;5092197;28;20541;-73
2022/05/23 02:38:16;;;;;;;2.23;1.60;;;21.50;55.30;;;-142.21;75.03;112049.66;5088920;28;20201;-72
2022/05/23 02:40:43;;;;;;;3.27;1.70;;;21.50;55.20;;;-142.21;74.64;112049.66;5077310;28;20217;-72
2022/05/23 02:43:11;;;;;;;2.80;1.97;;;21.50;55.10;;;-142.21;74.23;112049.66;5075296;28;20292;-72
2022/05/23 02:45:43;;;;;;;2.23;1.67;;;21.60;55.10;;;-142.21;74.66;112049.66;5090635;28;20731;-73
2022/05/23 02:48:10;;;;;;;3.20;1.63;;;21.60;55.20;;;-142.21;74.89;112049.66;5080805;28;20193;-73
2022/05/23 02:50:38;;;;;;;3.30;1.60;;;21.60;55.20;;;-142.21;74.30;112049.66;5080576;28;20192;-73
2022/05/23 02:53:06;;;;;;;2.47;1.80;;;21.60;55.10;;;-142.21;74.59;112049.66;5089221;28;20232;-72
2022/05/23 02:55:34;;;;;;;2.30;1.90;;;21.60;55.20;;;-142.21;74.70;112049.66;5071247;28;20308;-72
2022/05/23 02:58:01;;;;;;;2.17;1.70;;;21.50;55.10;;;-142.21;75.20;112049.66;5088021;28;20196;-72
2022/05/23 03:00:28;;;;;;;1.97;1.83;;;21.60;55.30;;;-142.21;74.58;112049.66;5077366;28;20242;-72
2022/05/23 03:03:03;;;;;;;1.63;1.53;;;21.50;55.10;;;-142.21;74.20;112049.66;5073891;28;20197;-72
2022/05/23 03:05:32;;;;;;;3.27;1.70;;;21.60;55.10;;;-142.21;74.41;112049.66;5083970;28;20259;-72
2022/05/23 03:08:01;;;;;;;1.90;1.73;;;21.60;55.10;;;-142.21;74.96;112049.66;5076580;28;20228;-73
2022/05/23 03:10:28;;;;;;;1.70;1.60;;;21.70;55.40;;;-142.21;75.48;112049.66;5078811;28;20204;-72
2022/05/23 03:12:55;;;;;;;1.63;1.53;;;21.60;55.30;;;-142.21;75.50;112049.66;5094015;28;20208;-73
2022/05/23 03:15:24;;;;;;;2.03;1.83;;;21.70;55.40;;;-142.21;74.92;112049.66;5096051;28;20240;-73
2022/05/23 03:17:51;;;;;;;2.27;1.70;;;21.70;55.30;;;-142.21;75.76;112049.66;5083052;28;20352;-73
2022/05/23 03:20:19;;;;;;;2.97;1.80;;;21.70;55.50;;;-142.21;75.52;112049.66;5077476;28;20212;-73
2022/05/23 03:28:17;;;;;;;3.17;2.00;;;21.70;55.10;;;-142.21;74.08;112049.66;5075133;28;20554;-72
2022/05/23 03:30:44;;;;;;;2.10;1.90;;;21.50;55.20;;;-142.21;74.56;112049.66;5070926;28;20577;-73
2022/05/23 03:33:12;;;;;;;4.63;2.00;;;21.20;55.80;;;-142.21;74.79;112049.66;5075893;28;20204;-73
2022/05/23 03:35:40;;;;;;;1.60;1.50;;;21.00;56.30;;;-142.21;74.40;112049.66;5090946;28;20204;-73
2022/05/23 03:38:08;;;;;;;5.07;1.97;;;21.00;56.40;;;-142.21;80.78;112049.66;5080182;28;20199;-73
2022/05/23 03:40:40;;;;;;;3.20;1.90;;;21.10;57.70;;;-142.21;83.63;112049.66;5070976;28;20228;-73
2022/05/23 03:43:08;;;;;;;2.30;2.10;;;21.30;58.60;;;-142.21;84.45;112049.66;5072875;28;20185;-73
2022/05/23 03:45:37;;;;;;;3.23;2.20;;;21.20;58.70;;;-142.21;88.60;112049.66;5082382;28;20201;-73
2022/05/23 03:48:06;;;;;;;1.70;1.60;;;21.20;59.90;;;-142.21;92.44;112049.66;5072325;28;20211;-73
2022/05/23 03:50:35;;;;;;;2.30;2.10;;;21.20;61.60;;;-142.21;94.55;112049.66;5073176;28;20274;-73
2022/05/23 03:53:04;;;;;;;4.60;2.30;;;21.30;62.80;;;-142.21;93.57;112049.66;5086736;28;20212;-73
2022/05/23 03:55:32;;;;;;;2.73;2.17;;;21.20;61.90;;;-142.21;93.77;112049.66;5090094;28;20216;-73
2022/05/23 03:58:01;;;;;;;6.13;2.37;;;21.20;62.10;;;-142.21;94.65;112049.66;5076256;28;20552;-74
2022/05/23 04:00:28;;;;;;;4.60;2.60;;;21.10;62.50;;;-142.21;98.13;112049.66;5069981;28;20304;-74
2022/05/23 04:02:56;;;;;;;2.87;2.27;;;21.00;63.90;;;-142.21;97.33;112049.66;5072996;28;20299;-74
2022/05/23 04:05:23;;;;;;;2.47;2.27;;;21.00;64.00;;;-142.21;99.05;112049.66;5090000;28;20277;-74
2022/05/23 04:07:50;;;;;;;5.30;2.40;;;21.00;65.40;;;-142.21;100.00;112049.66;5086575;28;20200;-73
2022/05/23 04:10:19;;;;;;;2.37;2.13;;;21.00;65.50;;;-142.21;99.28;112049.66;5071483;28;20201;-72
2022/05/23 04:12:47;;;;;;;6.60;2.57;;;20.90;65.10;;;-142.21;100.00;112049.66;5086976;28;20602;-73
2022/05/23 04:15:16;;;;;;;4.40;2.60;;;20.90;66.40;;;-142.21;100.00;112049.66;5078106;28;20211;-74
2022/05/23 04:17:43;;;;;;;5.33;2.70;;;20.90;67.10;;;-142.21;100.00;112049.66;5087175;28;20197;-74
2022/05/23 04:20:12;;;;;;;4.93;2.60;;;20.90;67.60;;;-142.21;100.00;112049.66;5077120;28;20217;-74
2022/05/23 04:22:39;;;;;;;3.47;2.70;;;20.90;67.70;;;-142.21;100.00;112049.66;5074773;28;20226;-73
2022/05/23 04:25:07;;;;;;;3.63;2.50;;;20.90;68.60;;;-142.21;100.00;112049.66;5087915;28;20206;-73
2022/05/23 04:27:35;;;;;;;3.23;2.60;;;20.80;68.30;;;-142.21;100.00;112049.66;5093831;28;20208;-74
2022/05/23 04:30:03;;;;;;;4.60;2.43;;;20.80;68.60;;;-142.21;100.00;112049.66;5073711;28;20665;-73
2022/05/23 04:35:16;;;;;;;2.87;2.53;;;20.60;69.00;;;-142.21;100.00;112049.66;5093086;28;20207;-74
2022/05/23 04:37:45;;;;;;;2.70;2.50;;;20.70;69.50;;;-142.21;100.00;112049.66;5093800;28;20470;-74
2022/05/23 04:40:15;;;;;;;5.00;2.80;;;20.50;69.80;;;-142.21;100.00;112049.66;5071633;28;20267;-73
2022/05/23 04:42:43;;;;;;;4.93;2.80;;;20.40;70.30;;;-142.21;100.00;112049.66;5091521;28;20200;-74
2022/05/23 04:45:12;;;;;;;3.50;2.80;;;20.50;70.50;;;-142.21;100.00;112049.66;5093315;28;20291;-73
2022/05/23 04:50:27;;;;;;;4.73;3.13;;;20.10;71.00;;;-142.21;100.00;112049.66;5065087;28;20275;-72
2022/05/23 04:52:56;;;;;;;6.63;3.10;;;20.00;71.80;;;-142.21;100.00;112049.66;5075433;28;20201;-74
2022/05/23 04:55:23;;;;;;;6.83;3.70;;;20.00;72.60;;;-142.21;100.00;112049.66;5073500;28;20198;-73
2022/05/23 04:57:52;;;;;;;5.07;3.57;;;19.80;72.60;;;-142.21;100.00;112049.66;5084390;28;20197;-73
2022/05/23 05:00:22;;;;;;;4.83;3.50;;;19.80;73.60;;;-142.21;100.00;112049.66;5079113;28;20224;-73
2022/05/23 05:02:51;;;;;;;5.50;3.53;;;19.90;73.20;;;-142.21;100.00;112049.66;5075908;28;20197;-73
2022/05/23 05:05:20;;;;;;;6.47;3.40;;;20.00;73.20;;;-142.21;100.00;112049.66;5092945;28;20715;-73
2022/05/23 05:07:47;;;;;;;3.67;3.20;;;20.10;73.00;;;-142.21;100.00;112049.66;5089130;28;20300;-73
2022/05/23 05:10:14;;;;;;;3.57;2.60;;;20.10;72.90;;;-142.21;100.00;112049.66;5074098;28;20200;-74
2022/05/23 05:12:41;;;;;;;3.80;2.73;;;20.20;72.60;;;-142.21;100.00;112049.66;5078837;28;20204;-74
2022/05/23 05:15:10;;;;;;;4.63;2.97;;;20.30;72.60;;;-142.21;100.00;112049.66;5093387;28;20201;-73
2022/05/23 05:17:37;;;;;;;6.03;3.10;;;20.30;72.30;;;-142.21;100.00;112049.66;5078491;28;20209;-73
2022/05/23 05:20:08;;;;;;;4.13;2.80;;;20.30;72.40;;;-142.21;100.00;112049.66;5074004;28;20573;-74
2022/05/23 05:22:35;;;;;;;2.80;2.60;;;20.30;72.10;;;-142.21;100.00;112049.66;5073958;28;20189;-73
2022/05/23 05:25:03;;;;;;;3.23;2.90;;;20.30;72.00;;;-142.21;100.00;112049.66;5072608;28;20565;-73
2022/05/23 05:27:30;;;;;;;4.53;2.67;;;20.20;71.70;;;-142.21;100.00;112049.66;5073152;28;20284;-73
2022/05/23 05:29:59;;;;;;;2.90;2.60;;;20.00;72.40;;;-142.21;100.00;112049.66;5064284;28;20448;-73
2022/05/23 05:32:41;;;;;;;3.57;3.00;;;19.80;73.20;;;-142.21;100.00;112049.66;5053041;28;20229;-73
2022/05/23 05:35:20;;;;;;;3.77;2.77;;;19.60;74.20;;;-142.21;100.00;112049.66;5053425;28;20208;-73
2022/05/23 05:37:54;;;;;;;5.47;2.27;;;19.60;74.10;;;-142.21;100.00;112049.66;5074315;28;20190;-73
2022/05/23 05:40:25;;;;;;;2.73;2.53;;;19.70;73.80;;;-142.21;100.00;112049.66;5056681;28;20232;-73
2022/05/23 05:43:01;;;;;;;3.37;2.87;;;19.90;73.00;;;-142.21;100.00;112049.66;5073279;28;20795;-73
2022/05/23 05:45:34;;;;;;;4.20;2.40;;;20.10;73.40;;;-142.21;100.00;112049.66;5086935;28;20550;-72
2022/05/23 05:48:02;;;;;;;2.87;2.57;;;20.20;72.70;;;-142.21;100.00;112049.66;5074033;28;20193;-71
2022/05/23 05:50:36;;;;;;;7.33;3.33;;;20.20;73.00;;;-142.21;100.00;112049.66;5087490;28;20465;-72
2022/05/23 05:53:12;;;;;;;3.87;2.70;;;20.30;72.70;;;-142.21;100.00;112049.66;5073357;28;20592;-72
2022/05/23 05:55:42;;;;;;;2.60;2.40;;;20.40;72.70;;;-142.21;100.00;112049.66;5085408;28;20261;-72
2022/05/23 05:58:10;;;;;;;5.27;2.90;;;20.50;73.10;;;-142.21;100.00;112049.66;5088195;28;20805;-72
2022/05/23 06:00:37;;;;;;;2.40;2.20;;;20.60;72.50;;;-142.21;100.00;112049.66;5079930;28;20225;-73
2022/05/23 06:03:04;;;;;;;2.83;2.53;;;20.60;71.40;;;-142.21;100.00;112049.66;5080364;28;20663;-71
2022/05/23 06:11:23;;;;;;;3.70;2.77;;;20.60;72.00;;;-142.21;100.00;112049.66;5071330;28;20723;-73
2022/05/23 06:13:49;;;;;;;2.20;2.00;;;20.50;72.00;;;-142.21;100.00;112049.66;5068324;28;20236;-72
2022/05/23 06:16:17;;;;;;;2.40;2.20;;;20.60;72.00;;;-142.21;100.00;112049.66;5087848;28;20572;-71
2022/05/23 06:18:45;;;;;;;3.17;2.10;;;20.70;72.00;;;-142.21;100.00;112049.66;5078412;28;20213;-70
2022/05/23 06:21:14;;;;;;;2.30;2.10;;;20.80;72.50;;;-142.21;100.00;112049.66;5072264;28;20328;-73
2022/05/23 06:23:41;;;;;;;2.43;2.10;;;20.70;72.30;;;-142.21;100.00;112049.66;5067160;28;20293;-72
2022/05/23 06:26:08;;;;;;;2.63;2.30;;;20.80;72.30;;;-142.21;100.00;112049.66;5071573;28;20288;-71
2022/05/23 06:28:37;;;;;;;3.83;2.30;;;20.90;72.60;;;-142.21;100.00;112049.66;5071555;28;20209;-72
2022/05/23 06:31:04;;;;;;;4.67;2.40;;;20.80;72.30;;;-142.21;100.00;112049.66;5072356;28;20282;-72
2022/05/23 06:33:32;;;;;;;3.97;2.33;;;20.80;72.80;;;-142.21;100.00;112049.66;5070780;28;20626;-72
2022/05/23 06:35:59;;;;;;;2.73;2.50;;;20.90;73.40;;;-142.21;100.00;112049.66;5056580;28;20197;-71
2022/05/23 06:38:28;;;;;;;3.63;2.53;;;21.00;72.60;;;-142.21;100.00;112049.66;5071070;28;20200;-71
2022/05/23 06:40:56;;;;;;;2.83;2.50;;;21.00;72.30;;;-142.21;100.00;112049.66;5072858;28;20257;-72
2022/05/23 06:43:23;;;;;;;4.33;2.60;;;21.20;72.70;;;-142.21;100.00;112049.66;5075667;28;20674;-72
2022/05/23 06:45:50;;;;;;;2.63;2.17;;;21.40;73.10;;;-142.21;100.00;112049.66;5088879;28;20207;-72
2022/05/23 06:48:17;;;;;;;2.57;2.37;;;21.50;73.40;;;-142.21;100.00;112049.66;5071697;28;20209;-72
2022/05/23 06:50:47;;;;;;;3.00;2.23;;;21.70;72.50;;;-142.21;100.00;112049.66;5072192;28;20236;-72
2022/05/23 06:53:16;;;;;;;3.93;2.00;;;21.80;72.10;;;-142.21;100.00;112049.66;5071859;28;20308;-72
2022/05/23 06:55:45;;;;;;;2.63;2.43;;;21.90;69.90;;;-142.21;100.00;112049.66;5071144;28;20259;-72
2022/05/23 06:58:12;;;;;;;2.47;2.20;;;22.00;70.70;;;-142.21;100.00;112049.66;5067421;28;20288;-72
2022/05/23 07:00:40;;;;;;;3.03;2.20;;;22.10;71.60;;;-142.21;100.00;112049.66;5066995;28;20497;-72
2022/05/23 07:03:08;;;;;;;2.63;2.17;;;22.10;70.40;;;-142.21;100.00;112049.66;5071865;28;20209;-72
2022/05/23 07:13:53;;;;;;;5.13;2.70;;;22.00;70.70;;;-142.21;100.00;112049.66;5071752;28;20192;-72
2022/05/23 07:16:20;;;;;;;2.83;2.10;;;22.00;70.90;;;-142.21;100.00;112049.66;5068297;28;20649;-72
2022/05/23 07:18:47;;;;;;;3.70;2.37;;;22.10;71.20;;;-142.21;100.00;112049.66;5055181;28;20237;-72
2022/05/23 07:21:15;;;;;;;2.30;2.00;;;22.30;71.80;;;-142.21;100.00;112049.66;5050956;28;20236;-70
2022/05/23 07:23:43;;;;;;;2.60;2.40;;;22.40;71.40;;;-142.21;100.00;112049.66;5069962;28;20209;-71
2022/05/23 07:26:16;;;;;;;3.00;2.00;;;22.50;71.80;;;-142.21;100.00;112049.66;5068334;28;20665;-70
2022/05/23 07:28:44;;;;;;;2.37;2.17;;;22.70;70.50;;;-142.21;100.00;112049.66;5070898;28;20192;-71
2022/05/23 07:31:13;;;;;;;4.33;2.53;;;22.80;71.20;;;-142.21;100.00;112049.66;5071010;28;20235;-70
2022/05/23 07:33:41;;;;;;;2.27;2.07;;;22.90;70.60;;;-142.21;100.00;112049.66;5070783;28;20682;-71
2022/05/23 07:36:11;;;;;;;8.93;2.57;;;23.00;69.80;;;-142.21;100.00;112049.66;5071396;28;20738;-70
2022/05/23 07:38:39;;;;;;;2.87;2.43;;;22.90;69.50;;;-142.21;100.00;112049.66;5070652;28;20215;-70
2022/05/23 07:41:09;;;;;;;3.17;2.53;;;22.80;69.70;;;-142.21;100.00;112049.66;5071579;28;20589;-70
2022/05/23 07:43:41;;;;;;;3.00;2.60;;;22.70;70.20;;;-142.21;100.00;112049.66;5071144;28;20210;-70
2022/05/23 07:46:12;;;;;;;3.10;2.37;;;22.90;71.30;;;-142.21;100.00;112049.66;5074469;28;20197;-71
2022/05/23 07:48:41;;;;;;;4.43;3.07;;;23.00;70.70;;;-142.21;100.00;112049.66;5075203;28;20287;-71
2022/05/23 07:51:11;;;;;;;3.70;2.27;;;22.90;70.30;;;-142.21;100.00;112049.66;5075332;28;20236;-71
2022/05/23 08:01:56;;;;;;;5.57;2.80;;;23.00;71.20;;;-142.21;100.00;112049.66;5075470;28;20566;-72
2022/05/23 08:04:24;;;;;;;4.80;2.67;;;23.10;71.70;;;-142.21;100.00;112049.66;5074264;28;20237;-70
2022/05/23 08:06:52;;;;;;;3.93;2.90;;;23.10;70.80;;;-142.21;100.00;112049.66;5075270;28;20202;-70
2022/05/23 08:09:21;;;;;;;3.33;2.70;;;23.20;70.60;;;-142.21;100.00;112049.66;5074894;28;20228;-71
2022/05/23 08:11:53;;;;;;;4.73;2.80;;;23.30;69.80;;;-142.21;100.00;112049.66;5075121;28;20232;-71
2022/05/23 08:14:23;;;;;;;3.73;2.67;;;23.30;69.50;;;-142.21;99.85;112049.66;5074656;28;20194;-71
2022/05/23 08:16:52;;;;;;;4.93;2.80;;;23.30;68.30;;;-142.21;100.00;112049.66;5075058;28;20211;-71
2022/05/23 08:19:19;;;;;;;4.60;3.13;;;23.30;68.80;;;-142.21;100.00;112049.66;5074950;28;20243;-71
2022/05/23 08:21:51;;;;;;;5.73;2.77;;;23.40;69.00;;;-142.21;100.00;112049.66;5074887;28;20300;-70
2022/05/23 08:24:19;;;;;;;4.60;2.93;;;23.60;68.10;;;-142.21;99.65;112049.66;5074492;28;20194;-71
2022/05/23 08:26:46;;;;;;;3.63;2.50;;;23.80;67.70;;;-142.21;100.00;112049.66;5074564;28;20669;-70
2022/05/23 08:29:14;;;;;;;3.40;3.10;;;23.90;67.70;;;-142.21;100.00;112049.66;5074385;28;20213;-70
2022/05/23 08:31:44;;;;;;;5.33;2.70;;;24.00;67.90;;;-142.21;99.49;112049.66;5074128;28;20568;-70
2022/05/23 08:34:11;;;;;;;4.20;2.93;;;24.10;67.30;;;-142.21;98.84;112049.66;5074398;28;20205;-71
2022/05/23 08:36:39;;;;;;;4.20;3.00;;;24.20;66.70;;;-142.21;100.00;112049.66;5073935;28;20291;-71
2022/05/23 08:39:06;;;;;;;3.97;3.23;;;24.40;68.00;;;-142.21;100.00;112049.66;5074345;28;20731;-71
2022/05/23 08:41:39;;;;;;;3.57;2.90;;;24.50;67.70;;;-142.21;100.00;112049.66;5074056;28;20225;-71
2022/05/23 08:44:22;;;;;;;3.93;2.70;;;24.80;67.80;;;-142.21;95.75;112049.66;5074661;28;20192;-72
2022/05/23 08:47:02;;;;;;;2.60;2.37;;;24.80;65.00;;;-142.21;98.75;112049.66;5074661;28;20191;-71
2022/05/23 08:49:46;;;;;;;3.30;2.80;;;24.90;67.00;;;-142.21;95.00;112049.66;5074089;28;20275;-70
2022/05/23 08:52:23;;;;;;;6.30;2.57;;;25.00;65.10;;;-142.21;95.09;112049.66;5074101;28;20243;-70
2022/05/23 08:55:01;;;;;;;3.87;2.60;;;25.10;64.20;;;-142.21;98.74;112049.66;5074384;28;20590;-70
2022/05/23 08:57:38;;;;;;;3.27;2.60;;;25.40;66.10;;;-142.21;94.19;112049.66;5072605;28;20235;-70
2022/05/23 09:00:14;;;;;;;4.73;2.63;;;25.40;63.80;;;-142.21;97.55;112049.66;5074046;28;20638;-70
2022/05/23 09:02:51;;;;;;;2.60;2.40;;;25.50;65.50;;;-142.21;95.90;112049.66;5073712;28;20205;-70
2022/05/23 09:05:23;;;;;;;2.77;2.57;;;25.60;64.70;;;-142.21;96.70;112049.66;5073867;28;20229;-73
2022/05/23 09:07:58;;;;;;;3.50;3.07;;;25.70;64.40;;;-142.21;98.57;112049.66;5074112;28;20614;-71
2022/05/23 09:10:35;;;;;;;3.27;2.80;;;25.90;65.50;;;-142.21;97.14;112049.66;5073174;28;20192;-72
2022/05/23 09:13:02;;;;;;;3.03;2.73;;;26.00;64.70;;;-142.21;95.52;112049.66;5074045;28;20201;-73
2022/05/23 09:15:29;;;;;;;3.20;2.90;;;26.10;63.90;;;-142.21;94.87;112049.66;5073133;28;20245;-73
2022/05/23 09:18:04;;;;;;;5.77;3.20;;;26.20;63.10;;;-142.21;91.47;112049.66;5073689;28;20300;-73
2022/05/23 09:20:42;;;;;;;3.53;3.23;;;26.10;61.40;;;-142.21;92.36;112049.66;5073156;28;20193;-72
2022/05/23 09:23:14;;;;;;;3.13;2.70;;;25.80;62.00;;;-142.21;95.45;112049.66;5073444;28;20677;-72
2022/05/23 09:25:41;;;;;;;3.40;2.60;;;25.90;64.80;;;-142.21;92.34;112049.66;5073085;28;20199;-71
2022/05/23 09:28:20;;;;;;;4.63;2.87;;;26.00;62.70;;;-142.21;92.13;112049.66;5073767;28;20205;-73
2022/05/23 09:30:59;;;;;;;5.03;2.77;;;25.80;62.00;;;-142.21;91.86;112049.66;5073127;28;20315;-74
2022/05/23 09:33:31;;;;;;;2.90;2.60;;;25.90;61.70;;;-142.21;97.26;112049.66;5072766;28;20295;-72
2022/05/23 09:36:14;;;;;;;3.23;2.70;;;26.20;64.50;;;-142.21;94.19;112049.66;5072917;28;20641;-72
2022/05/23 09:38:56;;;;;;;4.77;2.90;;;26.40;62.90;;;-142.21;90.55;112049.66;5072886;28;20196;-71
2022/05/23 09:50:10;;;;;;;3.90;2.73;;;27.10;59.60;;;-142.21;84.20;112049.66;5072937;28;20246;-71
2022/05/23 09:52:49;;;;;;;4.70;3.03;;;27.10;57.70;;;-142.21;85.10;112049.66;5072800;28;20633;-72
2022/05/23 09:55:28;;;;;;;5.10;2.90;;;27.10;58.30;;;-142.21;83.00;112049.66;5073144;28;20189;-73
2022/05/23 09:57:59;;;;;;;3.37;3.07;;;27.10;57.10;;;-142.21;83.28;112049.66;5073290;28;20262;-72
2022/05/23 10:00:35;;;;;;;3.50;3.20;;;27.10;57.60;;;-142.21;84.18;112049.66;5072629;28;20251;-73
2022/05/23 10:03:07;;;;;;;3.07;2.63;;;27.00;57.40;;;-142.21;85.79;112049.66;5072873;28;20225;-72
2022/05/23 10:05:40;;;;;;;4.27;3.10;;;26.90;58.50;;;-142.21;84.71;112049.66;5071827;28;20294;-73
2022/05/23 10:08:12;;;;;;;4.00;2.87;;;26.90;58.10;;;-142.21;84.52;112049.66;5072885;28;20195;-73
2022/05/23 10:10:53;;;;;;;3.47;3.17;;;26.90;58.00;;;-142.21;86.46;112049.66;5072256;28;20292;-71
2022/05/23 10:13:28;;;;;;;8.40;3.40;;;26.80;58.60;;;-142.21;86.36;112049.66;5072640;28;20190;-71
2022/05/23 10:15:59;;;;;;;3.10;2.80;;;26.80;58.60;;;-142.21;86.54;112049.66;5072813;28;20200;-73
2022/05/23 10:18:31;;;;;;;5.60;3.33;;;26.80;58.50;;;-142.21;86.10;112049.66;5072306;28;20209;-71
2022/05/23 10:21:19;;;;;;;4.93;2.80;;;26.70;58.40;;;-142.21;86.08;112049.66;5072257;28;20285;-71
2022/05/23 10:24:07;;;;;;;4.80;2.70;;;26.60;58.40;;;-142.21;85.20;112049.66;5071794;28;20189;-72
2022/05/23 10:26:48;;;;;;;3.17;2.53;;;26.50;58.40;;;-142.21;84.94;112049.66;5052100;28;20193;-71
2022/05/23 10:29:26;;;;;;;3.37;3.07;;;26.30;58.30;;;-142.21;84.43;112049.66;5052729;28;20194;-71
2022/05/23 10:32:03;;;;;;;3.43;2.73;;;26.30;58.20;;;-142.21;84.64;112049.66;5052609;28;20249;-73
2022/05/23 10:34:40;;;;;;;5.60;3.17;;;26.20;58.60;;;-142.21;85.65;112049.66;5051309;28;20582;-72
2022/05/23 10:37:15;;;;;;;4.47;2.80;;;26.20;58.70;;;-142.21;85.33;112049.66;5052632;28;20221;-73
2022/05/23 10:42:39;;;;;;;5.20;3.37;;;26.00;59.20;;;-142.21;87.29;112049.66;5071188;28;20325;-73
2022/05/23 10:45:28;;;;;;;3.97;3.07;;;25.80;59.50;;;-142.21;88.55;112049.66;5072130;28;20236;-71
2022/05/23 10:48:20;;;;;;;3.87;3.13;;;25.60;60.40;;;-142.21;91.62;112049.66;5071804;28;20192;-72
2022/05/23 10:50:57;;;;;;;3.87;3.27;;;25.50;62.10;;;-142.21;95.84;112049.66;5071552;28;20232;-74
2022/05/23 10:53:54;;;;;;;5.13;4.00;;;25.50;63.50;;;-142.21;97.36;112049.66;5072333;28;20276;-71
2022/05/23 10:56:36;;;;;;;5.13;4.40;;;25.20;65.30;;;-142.21;99.22;112049.66;5072390;28;20193;-71
2022/05/23 10:59:11;;;;;;;7.10;4.57;;;25.00;65.80;;;-142.21;100.00;112049.66;5072248;28;20280;-71
2022/05/23 11:02:04;;;;;;;5.10;4.30;;;24.80;67.00;;;-142.21;100.00;112049.66;5071237;28;20281;-73